高雄國際航空站 - ATIS

METAR RCKH 281400Z 25004KT 220V280 9999 FEW016 SCT038 29/24 Q1008 NOSIG RMK A2978(D)=

站台狀態:Offline
最後更新:2021-09-28 22:00:01